Time;durP1;ratioP1;P1;durP2;ratioP2;P2;SDS_P1;SDS_P2;PMS_P1;PMS_P2;Temp;Humidity;BMP_temperature;BMP_pressure;BME280_temperature;BME280_humidity;BME280_pressure;Samples;Min_cycle;Max_cycle;Signal;HPM_P1;HPM_P2
2021/04/30 00:01:58;;;;;;;9.67;6.53;;;7.20;1.00;;;;;;5075393;28;20173;-93
2021/04/30 00:04:28;;;;;;;7.90;5.70;;;7.20;1.00;;;;;;5074707;28;20179;-91
2021/04/30 00:06:53;;;;;;;8.73;6.03;;;7.00;1.00;;;;;;5075078;28;20179;-81
2021/04/30 00:09:19;;;;;;;8.70;5.93;;;7.00;1.00;;;;;;5074297;28;20169;-82
2021/04/30 00:11:48;;;;;;;10.13;6.90;;;7.00;1.00;;;;;;5075556;28;20547;-86
2021/04/30 00:14:14;;;;;;;9.17;5.70;;;7.00;1.00;;;;;;5074201;28;20160;-89
2021/04/30 00:16:40;;;;;;;11.47;6.77;;;6.90;1.00;;;;;;5074510;28;20172;-86
2021/04/30 00:19:07;;;;;;;8.80;6.53;;;7.00;1.00;;;;;;5076374;28;20652;-85
2021/04/30 00:21:32;;;;;;;7.03;5.50;;;7.00;1.00;;;;;;5076597;28;20295;-88
2021/04/30 00:23:59;;;;;;;15.13;7.63;;;7.10;1.00;;;;;;5074573;28;20183;-93
2021/04/30 00:26:25;;;;;;;11.37;5.80;;;6.90;1.00;;;;;;5075245;28;20208;-92
2021/04/30 00:28:51;;;;;;;10.80;6.10;;;6.90;1.00;;;;;;5074353;28;20518;-90
2021/04/30 00:31:18;;;;;;;9.67;6.40;;;7.00;1.00;;;;;;5075010;28;20192;-86
2021/04/30 00:33:44;;;;;;;11.40;6.70;;;7.00;1.00;;;;;;5074003;28;20195;-92
2021/04/30 00:36:10;;;;;;;11.20;6.47;;;7.00;1.00;;;;;;5074348;28;20172;-89
2021/04/30 00:38:38;;;;;;;9.83;6.60;;;7.10;1.00;;;;;;5074370;28;20214;-86
2021/04/30 00:41:03;;;;;;;14.67;7.33;;;7.20;1.00;;;;;;5075431;28;20172;-78
2021/04/30 00:43:29;;;;;;;10.83;6.57;;;7.10;1.00;;;;;;5074298;28;20283;-87
2021/04/30 00:45:55;;;;;;;9.37;6.43;;;7.20;1.00;;;;;;5073879;28;20176;-91
2021/04/30 00:48:23;;;;;;;11.33;6.97;;;7.20;1.00;;;;;;5072455;28;20486;-90
2021/04/30 00:50:50;;;;;;;11.03;6.47;;;7.20;4.00;;;;;;5074316;28;20180;-91
2021/04/30 00:53:15;;;;;;;9.23;6.67;;;7.20;2.40;;;;;;5073457;28;20255;-88
2021/04/30 00:55:41;;;;;;;9.20;6.17;;;7.10;2.20;;;;;;5073998;28;20200;-84
2021/04/30 00:58:07;;;;;;;8.43;6.57;;;7.10;4.10;;;;;;5074465;28;20697;-92
2021/04/30 01:00:38;;;;;;;7.57;6.30;;;7.00;8.20;;;;;;5074162;28;20192;-92
2021/04/30 01:03:09;;;;;;;10.20;6.87;;;7.00;7.30;;;;;;5072967;28;20241;-91
2021/04/30 01:05:36;;;;;;;9.83;6.23;;;7.00;3.00;;;;;;5074031;28;20214;-81
2021/04/30 01:08:02;;;;;;;9.37;7.10;;;7.00;1.00;;;;;;5073490;28;20266;-90
2021/04/30 01:10:28;;;;;;;7.63;6.10;;;6.90;1.00;;;;;;5074244;28;20259;-90
2021/04/30 01:12:54;;;;;;;12.30;7.33;;;6.90;1.00;;;;;;5074874;28;20280;-88
2021/04/30 01:15:19;;;;;;;10.57;6.63;;;6.60;1.00;;;;;;5074903;28;20191;-88
2021/04/30 01:17:46;;;;;;;11.90;7.27;;;6.60;6.70;;;;;;5078110;28;20261;-88
2021/04/30 01:20:14;;;;;;;11.73;7.10;;;6.70;1.10;;;;;;5081095;28;20550;-92
2021/04/30 01:22:48;;;;;;;11.40;7.10;;;6.60;4.90;;;;;;5077545;28;20172;-83
2021/04/30 01:25:16;;;;;;;8.57;6.80;;;6.60;8.40;;;;;;5076159;28;20168;-88
2021/04/30 01:27:42;;;;;;;9.30;7.50;;;6.60;11.10;;;;;;5078248;28;20168;-79
2021/04/30 01:30:37;;;;;;;12.23;7.23;;;6.60;8.80;;;;;;5077948;28;20195;-81
2021/04/30 01:33:04;;;;;;;11.17;7.07;;;6.50;12.40;;;;;;5078445;28;20222;-92
2021/04/30 01:35:35;;;;;;;9.03;6.93;;;6.40;12.80;;;;;;5078466;28;20203;-88
2021/04/30 01:38:02;;;;;;;11.07;7.50;;;6.30;14.90;;;;;;5078355;28;20203;-82
2021/04/30 01:40:30;;;;;;;10.97;7.47;;;6.20;17.60;;;;;;5074864;28;20173;-80
2021/04/30 01:43:05;;;;;;;12.70;7.87;;;6.10;18.80;;;;;;5074817;28;20172;-86
2021/04/30 01:45:42;;;;;;;12.53;7.10;;;6.10;21.20;;;;;;5076146;28;20198;-85
2021/04/30 01:48:14;;;;;;;10.83;7.30;;;6.20;21.70;;;;;;5073648;28;20187;-91
2021/04/30 01:50:42;;;;;;;11.40;7.27;;;6.20;19.10;;;;;;5073211;28;20194;-87
2021/04/30 01:53:09;;;;;;;11.47;7.17;;;6.40;15.70;;;;;;5073663;28;20208;-86
2021/04/30 01:55:34;;;;;;;10.27;7.17;;;6.30;13.20;;;;;;5072421;28;20564;-89
2021/04/30 01:58:02;;;;;;;13.17;7.27;;;6.20;16.80;;;;;;5075818;28;20216;-90
2021/04/30 02:00:28;;;;;;;12.87;7.60;;;6.10;18.60;;;;;;5079447;28;20189;-88
2021/04/30 02:02:56;;;;;;;12.20;7.77;;;6.30;15.70;;;;;;5077710;28;20517;-90
2021/04/30 02:05:25;;;;;;;12.70;7.60;;;6.20;17.30;;;;;;5074443;28;20566;-85
2021/04/30 02:07:51;;;;;;;10.73;7.37;;;6.10;20.40;;;;;;5076431;28;20168;-81
2021/04/30 02:10:23;;;;;;;17.37;8.13;;;6.00;22.60;;;;;;5076447;28;20175;-92
2021/04/30 02:12:50;;;;;;;11.40;7.97;;;5.90;26.80;;;;;;5076715;28;20510;-90
2021/04/30 02:15:18;;;;;;;12.37;8.27;;;5.80;28.20;;;;;;5076888;28;20534;-91
2021/04/30 02:17:44;;;;;;;14.40;7.90;;;5.80;29.60;;;;;;5076697;28;20200;-85
2021/04/30 02:20:10;;;;;;;10.77;7.63;;;5.70;31.40;;;;;;5076158;28;20214;-89
2021/04/30 02:22:38;;;;;;;11.93;8.07;;;5.70;32.90;;;;;;5077065;28;20180;-90
2021/04/30 02:25:08;;;;;;;11.03;8.40;;;5.70;32.90;;;;;;5076466;28;20207;-85
2021/04/30 02:27:33;;;;;;;11.13;9.17;;;5.70;29.80;;;;;;5076242;28;20232;-90
2021/04/30 02:29:59;;;;;;;12.33;8.70;;;5.70;32.70;;;;;;5076407;28;20200;-89
2021/04/30 02:32:25;;;;;;;13.37;9.03;;;5.90;27.30;;;;;;5076260;28;20177;-88
2021/04/30 02:34:52;;;;;;;12.67;7.77;;;5.80;26.10;;;;;;5074584;28;20179;-82
2021/04/30 02:37:19;;;;;;;12.93;8.43;;;5.70;30.70;;;;;;5076088;28;20628;-89
2021/04/30 02:39:45;;;;;;;12.60;9.57;;;5.80;30.60;;;;;;5074987;28;20519;-87
2021/04/30 02:42:13;;;;;;;14.17;9.03;;;5.60;32.60;;;;;;5078385;28;20176;-78
2021/04/30 02:44:38;;;;;;;14.73;8.77;;;5.60;37.20;;;;;;5076413;28;20207;-87
2021/04/30 02:47:04;;;;;;;14.70;8.47;;;5.50;39.60;;;;;;5074556;28;20186;-80
2021/04/30 02:49:41;;;;;;;14.07;9.00;;;5.50;42.00;;;;;;5075591;28;20180;-89
2021/04/30 02:52:08;;;;;;;15.27;9.87;;;5.50;40.60;;;;;;5074724;28;20576;-79
2021/04/30 02:54:35;;;;;;;12.07;8.50;;;5.40;43.50;;;;;;5075890;28;20180;-88
2021/04/30 02:57:02;;;;;;;13.17;9.43;;;5.40;44.40;;;;;;5074332;28;20172;-81
2021/04/30 02:59:28;;;;;;;12.63;9.10;;;5.40;45.70;;;;;;5075634;28;20697;-90
2021/04/30 03:01:55;;;;;;;11.83;9.33;;;5.40;46.20;;;;;;5075454;28;20168;-83
2021/04/30 03:04:21;;;;;;;15.33;9.37;;;5.30;47.90;;;;;;5075383;28;20169;-91
2021/04/30 03:06:47;;;;;;;17.03;9.60;;;5.20;50.30;;;;;;5075242;28;20251;-81
2021/04/30 03:09:13;;;;;;;11.03;9.30;;;5.20;48.80;;;;;;5075401;28;20168;-91
2021/04/30 03:11:39;;;;;;;15.83;9.30;;;5.30;48.90;;;;;;5075138;28;20169;-86
2021/04/30 03:14:05;;;;;;;13.50;10.03;;;5.40;44.70;;;;;;5074920;28;20168;-88
2021/04/30 03:16:31;;;;;;;13.03;9.73;;;5.50;43.90;;;;;;5074041;28;20684;-90
2021/04/30 03:18:56;;;;;;;12.50;9.13;;;5.50;41.20;;;;;;5074602;28;20295;-91
2021/04/30 03:21:22;;;;;;;11.63;9.93;;;5.50;42.50;;;;;;5074973;28;20175;-92
2021/04/30 03:23:48;;;;;;;12.53;9.43;;;5.60;42.00;;;;;;5075067;28;20622;-91
2021/04/30 03:26:14;;;;;;;15.40;9.53;;;5.70;41.90;;;;;;5075167;28;20164;-81
2021/04/30 03:28:39;;;;;;;13.27;9.87;;;5.70;39.70;;;;;;5076599;28;20204;-87
2021/04/30 03:31:05;;;;;;;13.63;8.97;;;5.90;39.30;;;;;;5076059;28;20632;-77
2021/04/30 03:33:31;;;;;;;12.40;9.43;;;6.00;33.10;;;;;;5078109;28;20195;-88
2021/04/30 03:35:57;;;;;;;11.40;9.40;;;6.00;30.00;;;;;;5076816;28;20179;-85
2021/04/30 03:38:22;;;;;;;11.97;9.37;;;5.90;30.00;;;;;;5078074;28;20367;-91
2021/04/30 03:40:48;;;;;;;15.03;9.60;;;5.80;30.90;;;;;;5076346;28;20176;-89
2021/04/30 03:43:14;;;;;;;12.60;9.60;;;5.80;34.10;;;;;;5077092;28;20176;-88
2021/04/30 03:45:39;;;;;;;12.80;9.93;;;5.90;33.90;;;;;;5075457;28;20175;-86
2021/04/30 03:48:05;;;;;;;11.73;9.33;;;6.00;30.00;;;;;;5073983;28;20237;-84
2021/04/30 03:50:31;;;;;;;15.60;10.40;;;6.20;20.70;;;;;;5073898;28;20183;-90
2021/04/30 03:52:56;;;;;;;15.77;10.57;;;6.10;13.20;;;;;;5073710;28;20279;-91
2021/04/30 03:55:22;;;;;;;14.97;10.13;;;6.20;10.00;;;;;;5074926;28;20168;-79
2021/04/30 03:57:49;;;;;;;12.33;9.83;;;6.10;9.40;;;;;;5074652;28;20191;-80
2021/04/30 04:00:15;;;;;;;17.23;9.87;;;6.00;17.90;;;;;;5075060;28;20172;-90
2021/04/30 04:02:41;;;;;;;17.33;10.83;;;5.90;20.60;;;;;;5076365;28;20265;-89
2021/04/30 04:05:07;;;;;;;13.77;10.40;;;5.90;25.60;;;;;;5074484;28;20636;-82
2021/04/30 04:07:33;;;;;;;14.27;10.43;;;5.80;28.20;;;;;;5074672;28;20175;-91
2021/04/30 04:09:59;;;;;;;14.03;9.90;;;5.70;32.30;;;;;;5076750;28;20168;-83
2021/04/30 04:12:24;;;;;;;14.00;10.30;;;5.70;35.60;;;;;;5076363;28;20168;-91
2021/04/30 04:14:50;;;;;;;15.47;9.93;;;5.60;37.50;;;;;;5074976;28;20183;-84
2021/04/30 04:17:16;;;;;;;14.47;10.67;;;5.60;37.20;;;;;;5072860;28;20204;-87
2021/04/30 04:19:48;;;;;;;13.20;10.93;;;5.50;36.70;;;;;;5074063;28;20187;-82
2021/04/30 04:22:15;;;;;;;18.47;10.80;;;5.50;41.00;;;;;;5073833;28;20171;-84
2021/04/30 04:24:41;;;;;;;15.03;11.23;;;5.50;41.70;;;;;;5073695;28;20180;-91
2021/04/30 04:27:07;;;;;;;15.57;10.57;;;5.60;38.80;;;;;;5073731;28;20169;-76
2021/04/30 04:29:33;;;;;;;19.63;10.80;;;5.50;37.30;;;;;;5072996;28;20171;-89
2021/04/30 04:31:59;;;;;;;13.93;11.30;;;5.40;41.00;;;;;;5072637;28;20169;-92
2021/04/30 04:34:26;;;;;;;16.03;10.80;;;5.40;43.60;;;;;;5073571;28;20183;-91
2021/04/30 04:36:52;;;;;;;17.40;10.83;;;5.40;44.00;;;;;;5073818;28;20247;-90
2021/04/30 04:39:18;;;;;;;15.43;11.23;;;5.50;43.30;;;;;;5073998;28;20306;-89
2021/04/30 04:41:44;;;;;;;15.80;11.33;;;5.50;42.60;;;;;;5073598;28;20697;-77
2021/04/30 04:44:10;;;;;;;21.30;12.73;;;5.50;42.60;;;;;;5073589;28;20247;-89
2021/04/30 04:46:35;;;;;;;13.67;10.90;;;5.70;40.80;;;;;;5073919;28;20652;-90
2021/04/30 04:49:01;;;;;;;15.63;11.10;;;5.50;40.40;;;;;;5073420;28;20246;-89
2021/04/30 04:51:26;;;;;;;16.80;11.87;;;5.50;43.50;;;;;;5073027;28;20168;-90
2021/04/30 04:53:52;;;;;;;20.57;11.20;;;5.50;44.10;;;;;;5073143;28;20165;-82
2021/04/30 04:56:18;;;;;;;19.27;10.93;;;5.50;46.20;;;;;;5074197;28;20177;-80
2021/04/30 04:58:44;;;;;;;17.20;11.63;;;5.50;47.10;;;;;;5073252;28;20656;-79
2021/04/30 05:01:10;;;;;;;17.70;11.97;;;5.60;47.30;;;;;;5074168;28;20172;-90
2021/04/30 05:03:35;;;;;;;17.03;12.07;;;5.70;46.10;;;;;;5073789;28;20202;-93
2021/04/30 05:06:01;;;;;;;17.30;12.20;;;5.90;38.80;;;;;;5074390;28;20614;-83
2021/04/30 05:08:27;;;;;;;17.60;12.67;;;6.00;33.90;;;;;;5073437;28;20502;-89
2021/04/30 05:10:52;;;;;;;19.73;11.87;;;6.00;36.20;;;;;;5073447;28;20200;-88
2021/04/30 05:13:18;;;;;;;18.13;11.43;;;6.00;36.00;;;;;;5072940;28;20195;-82
2021/04/30 05:15:44;;;;;;;18.53;11.57;;;6.10;34.00;;;;;;5072993;28;20235;-91
2021/04/30 05:18:10;;;;;;;18.07;11.47;;;6.20;33.10;;;;;;5076929;28;20218;-91
2021/04/30 05:20:36;;;;;;;17.57;12.07;;;6.30;28.60;;;;;;5073589;28;20168;-84
2021/04/30 05:23:02;;;;;;;17.97;12.37;;;6.30;26.00;;;;;;5073385;28;20206;-76
2021/04/30 05:25:27;;;;;;;16.57;13.10;;;6.50;15.70;;;;;;5072566;28;20243;-75
2021/04/30 05:27:53;;;;;;;21.83;12.40;;;6.40;17.20;;;;;;5073086;28;20204;-90
2021/04/30 05:30:19;;;;;;;15.67;11.23;;;6.40;15.60;;;;;;5073727;28;20634;-90
2021/04/30 05:32:44;;;;;;;14.40;12.37;;;6.60;4.20;;;;;;5072723;28;20197;-90
2021/04/30 05:35:12;;;;;;;18.90;12.47;;;6.50;8.70;;;;;;5073207;28;20306;-77
2021/04/30 05:37:38;;;;;;;16.77;12.60;;;6.60;6.40;;;;;;5073873;28;20207;-88
2021/04/30 05:40:04;;;;;;;25.63;13.03;;;6.60;3.40;;;;;;5074641;28;20180;-78
2021/04/30 05:42:30;;;;;;;21.30;12.70;;;6.60;7.20;;;;;;5076405;28;20190;-80
2021/04/30 05:44:55;;;;;;;17.60;12.07;;;6.80;1.00;;;;;;5063816;28;20181;-78
2021/04/30 05:47:22;;;;;;;19.37;13.07;;;6.80;1.00;;;;;;5078134;28;20176;-79
2021/04/30 05:49:48;;;;;;;17.83;12.40;;;6.60;4.10;;;;;;5077657;28;20250;-90
2021/04/30 05:52:14;;;;;;;17.53;11.53;;;6.50;11.00;;;;;;5077753;28;20529;-90
2021/04/30 05:54:41;;;;;;;17.17;12.47;;;6.60;13.10;;;;;;5074665;28;20222;-83
2021/04/30 05:57:06;;;;;;;18.03;13.33;;;6.60;16.10;;;;;;5069249;28;20169;-82
2021/04/30 05:59:32;;;;;;;18.80;12.80;;;6.80;16.60;;;;;;5068267;28;20243;-83
2021/04/30 06:01:57;;;;;;;20.10;12.70;;;6.80;15.40;;;;;;5065876;28;20169;-87
2021/04/30 06:04:25;;;;;;;16.87;11.70;;;6.90;7.00;;;;;;5072672;28;20185;-84
2021/04/30 06:06:51;;;;;;;18.27;12.50;;;7.00;2.00;;;;;;5072667;28;20187;-86
2021/04/30 06:09:17;;;;;;;20.13;12.77;;;7.10;1.40;;;;;;5079794;28;20165;-88
2021/04/30 06:11:44;;;;;;;17.73;12.27;;;7.20;1.00;;;;;;5070405;28;20203;-84
2021/04/30 06:14:13;;;;;;;18.30;12.30;;;7.30;1.00;;;;;;5077785;28;20211;-80
2021/04/30 06:16:39;;;;;;;19.60;12.67;;;7.50;1.00;;;;;;5079938;28;20167;-89
2021/04/30 06:19:05;;;;;;;17.73;13.10;;;7.60;1.00;;;;;;5079710;28;20243;-87
2021/04/30 06:21:31;;;;;;;17.60;12.53;;;7.60;1.00;;;;;;5098701;28;20160;-85
2021/04/30 06:23:59;;;;;;;18.87;12.97;;;7.40;1.00;;;;;;5099817;28;20255;-90
2021/04/30 06:26:25;;;;;;;20.47;13.37;;;7.40;1.00;;;;;;5099714;28;20258;-95
2021/04/30 06:28:51;;;;;;;18.07;12.90;;;7.50;1.00;;;;;;5101056;28;20191;-89
2021/04/30 06:31:16;;;;;;;16.93;12.10;;;7.50;1.00;;;;;;5104205;28;20175;-85
2021/04/30 06:33:43;;;;;;;20.80;12.70;;;7.50;1.00;;;;;;5083258;28;20195;-89
2021/04/30 06:36:10;;;;;;;19.23;13.40;;;7.70;1.00;;;;;;5078766;28;20184;-78
2021/04/30 06:38:37;;;;;;;15.60;12.10;;;7.70;1.00;;;;;;5077088;28;20231;-93
2021/04/30 06:41:03;;;;;;;14.17;12.50;;;7.90;1.00;;;;;;5073377;28;20168;-86
2021/04/30 06:43:30;;;;;;;17.30;12.13;;;8.00;1.00;;;;;;5069929;28;20227;-93
2021/04/30 06:45:55;;;;;;;16.90;12.63;;;8.10;1.00;;;;;;5072754;28;20176;-93
2021/04/30 06:48:21;;;;;;;14.53;12.53;;;8.20;1.00;;;;;;5079833;28;20697;-93
2021/04/30 06:50:52;;;;;;;14.83;12.23;;;8.30;1.00;;;;;;5085665;28;20168;-88
2021/04/30 06:53:18;;;;;;;19.20;13.33;;;8.40;1.00;;;;;;5069226;28;20255;-90
2021/04/30 06:55:44;;;;;;;18.73;12.47;;;8.40;1.00;;;;;;5056237;28;20266;-76
2021/04/30 06:58:11;;;;;;;20.10;12.00;;;8.50;1.00;;;;;;5056506;28;20258;-86
2021/04/30 07:00:37;;;;;;;18.93;12.77;;;8.50;1.00;;;;;;5063049;28;20165;-89
2021/04/30 07:03:03;;;;;;;18.03;13.07;;;8.70;1.00;;;;;;5082940;28;20172;-88
2021/04/30 07:05:28;;;;;;;14.47;11.97;;;9.00;1.00;;;;;;5084199;28;20172;-92
2021/04/30 07:07:57;;;;;;;16.07;12.83;;;9.20;1.00;;;;;;5081565;28;20168;-80
2021/04/30 07:10:23;;;;;;;15.40;12.47;;;9.40;1.00;;;;;;5077294;28;20472;-81
2021/04/30 07:12:50;;;;;;;19.40;11.63;;;9.70;1.00;;;;;;5074441;28;20251;-93
2021/04/30 07:15:17;;;;;;;14.60;11.60;;;9.70;1.00;;;;;;5076075;28;20161;-89
2021/04/30 07:17:45;;;;;;;14.00;11.93;;;9.70;1.00;;;;;;5076048;28;20188;-88
2021/04/30 07:20:12;;;;;;;16.60;12.20;;;9.70;1.00;;;;;;5076759;28;20635;-94
2021/04/30 07:22:38;;;;;;;18.07;12.37;;;9.80;1.00;;;;;;5075081;28;20168;-80
2021/04/30 07:25:04;;;;;;;16.27;11.67;;;9.90;1.00;;;;;;5093361;28;20205;-96
2021/04/30 07:27:30;;;;;;;15.53;11.60;;;10.00;1.00;;;;;;5099969;28;20176;-96
2021/04/30 07:29:56;;;;;;;16.67;11.63;;;10.10;1.00;;;;;;5098245;28;20620;-95
2021/04/30 07:32:21;;;;;;;15.37;12.60;;;10.30;1.00;;;;;;5098358;28;20187;-84
2021/04/30 07:34:47;;;;;;;18.73;11.80;;;10.40;1.00;;;;;;5098486;28;20167;-81
2021/04/30 07:37:13;;;;;;;15.73;11.83;;;10.40;1.00;;;;;;5091436;28;20172;-87
2021/04/30 07:39:41;;;;;;;16.43;10.87;;;10.20;1.00;;;;;;5079199;28;20229;-95
2021/04/30 07:42:07;;;;;;;14.57;10.80;;;10.10;1.00;;;;;;5081757;28;20187;-89
2021/04/30 07:44:34;;;;;;;18.10;11.57;;;9.70;1.00;;;;;;5082204;28;20173;-82
2021/04/30 07:47:00;;;;;;;18.90;11.67;;;9.60;1.00;;;;;;5073568;28;20169;-87
2021/04/30 07:49:26;;;;;;;16.47;11.43;;;9.40;1.00;;;;;;5073600;28;20180;-82
2021/04/30 07:51:52;;;;;;;19.20;14.30;;;9.50;1.00;;;;;;5073517;28;20168;-82
2021/04/30 07:54:18;;;;;;;19.90;13.50;;;9.40;1.00;;;;;;5073317;28;20168;-79
2021/04/30 07:56:44;;;;;;;21.10;14.50;;;9.50;1.00;;;;;;5072697;28;20500;-75
2021/04/30 07:59:10;;;;;;;16.43;11.70;;;9.70;1.00;;;;;;5072867;28;20265;-85
2021/04/30 08:01:36;;;;;;;16.47;9.30;;;9.70;1.00;;;;;;5071917;28;20180;-82
2021/04/30 08:04:02;;;;;;;17.20;11.07;;;9.70;1.00;;;;;;5071784;28;20202;-89
2021/04/30 08:06:28;;;;;;;16.27;10.93;;;9.60;1.00;;;;;;5065893;28;20180;-89
2021/04/30 08:08:54;;;;;;;21.13;11.87;;;9.60;1.00;;;;;;5073297;28;20202;-88
2021/04/30 08:11:20;;;;;;;13.87;10.50;;;9.80;1.00;;;;;;5077700;28;20179;-85
2021/04/30 08:13:46;;;;;;;16.13;11.13;;;9.90;1.00;;;;;;5092975;28;20172;-89
2021/04/30 08:16:11;;;;;;;15.93;10.87;;;10.00;1.00;;;;;;5093155;28;20175;-88
2021/04/30 08:18:37;;;;;;;19.53;11.03;;;10.20;1.00;;;;;;5093871;28;20675;-80
2021/04/30 08:21:04;;;;;;;13.10;10.60;;;10.20;1.00;;;;;;5078149;28;20218;-85
2021/04/30 08:23:29;;;;;;;10.93;9.13;;;10.20;1.00;;;;;;5074907;28;20190;-85
2021/04/30 08:25:55;;;;;;;15.43;9.83;;;10.00;1.00;;;;;;5072863;28;20176;-83
2021/04/30 08:28:21;;;;;;;15.30;9.93;;;9.90;1.00;;;;;;5073085;28;20331;-84
2021/04/30 08:30:46;;;;;;;12.67;10.07;;;10.00;1.00;;;;;;5073178;28;20268;-82
2021/04/30 08:33:12;;;;;;;13.07;9.63;;;10.30;1.00;;;;;;5072651;28;20192;-86
2021/04/30 08:35:38;;;;;;;12.73;9.70;;;10.40;1.00;;;;;;5072199;28;20535;-90
2021/04/30 08:38:04;;;;;;;15.13;10.00;;;10.10;1.00;;;;;;5087351;28;20243;-85
2021/04/30 08:40:30;;;;;;;13.60;10.43;;;10.10;1.00;;;;;;5094270;28;20167;-89
2021/04/30 08:42:58;;;;;;;11.73;9.87;;;10.30;1.00;;;;;;5075014;28;20700;-78
2021/04/30 08:45:25;;;;;;;17.47;10.53;;;10.40;1.00;;;;;;5082663;28;20240;-88
2021/04/30 08:47:54;;;;;;;13.87;9.90;;;10.60;99.90;;;;;;5085620;28;20199;-77
2021/04/30 08:50:20;;;;;;;11.73;10.07;;;10.60;1.00;;;;;;5086829;28;20635;-80
2021/04/30 08:52:46;;;;;;;14.13;10.00;;;10.70;99.90;;;;;;5084986;28;20194;-77
2021/04/30 08:55:15;;;;;;;13.63;10.27;;;10.70;99.90;;;;;;5084063;28;20224;-80
2021/04/30 08:57:46;;;;;;;12.77;9.73;;;10.90;99.90;;;;;;5084289;28;20290;-78
2021/04/30 09:00:14;;;;;;;12.17;9.43;;;11.20;99.90;;;;;;5086110;28;20175;-78
2021/04/30 09:02:40;;;;;;;13.90;9.70;;;11.40;99.90;;;;;;5071391;28;20655;-84
2021/04/30 09:05:21;;;;;;;13.67;10.00;;;11.40;1.00;;;;;;5074699;28;20259;-81
2021/04/30 09:07:49;;;;;;;12.87;9.67;;;11.30;1.00;;;;;;5075000;28;20220;-88
2021/04/30 09:10:19;;;;;;;12.63;9.90;;;11.10;99.90;;;;;;5075003;28;20156;-87
2021/04/30 09:13:23;;;;;;;17.17;10.47;;;11.00;99.90;;;;;;5073784;28;20176;-87
2021/04/30 09:16:03;;;;;;;12.47;9.60;;;11.40;99.90;;;;;;5082692;28;20156;-83
2021/04/30 09:18:32;;;;;;;14.83;9.13;;;11.70;1.00;;;;;;5079774;28;20212;-88
2021/04/30 09:21:10;;;;;;;15.00;10.37;;;11.80;1.00;;;;;;5076320;28;20214;-84
2021/04/30 09:23:39;;;;;;;15.43;9.70;;;12.00;99.90;;;;;;5076765;28;20172;-88
2021/04/30 09:26:22;;;;;;;14.13;10.30;;;11.90;1.00;;;;;;5074461;28;20180;-82
2021/04/30 09:29:04;;;;;;;11.70;8.57;;;11.70;99.90;;;;;;5078097;28;20165;-84
2021/04/30 09:31:41;;;;;;;10.20;8.13;;;11.10;1.00;;;;;;5077616;28;20211;-88
2021/04/30 09:34:35;;;;;;;14.00;9.80;;;11.00;1.00;;;;;;5075883;28;20245;-88
2021/04/30 09:37:19;;;;;;;14.37;9.60;;;11.30;1.00;;;;;;5076606;28;20272;-89
2021/04/30 09:40:03;;;;;;;11.60;9.07;;;11.60;99.90;;;;;;5076164;28;20233;-91
2021/04/30 09:42:31;;;;;;;13.53;8.53;;;11.90;1.00;;;;;;5068663;28;20229;-89
2021/04/30 09:45:02;;;;;;;12.87;8.77;;;12.20;99.90;;;;;;5063927;28;20171;-77
2021/04/30 09:47:30;;;;;;;10.60;8.43;;;12.50;99.90;;;;;;5056120;28;20173;-89
2021/04/30 09:50:03;;;;;;;11.77;8.83;;;12.70;99.90;;;;;;5064865;28;20168;-87
2021/04/30 09:52:29;;;;;;;11.57;9.30;;;12.60;1.00;;;;;;5076151;28;20180;-89
2021/04/30 09:55:01;;;;;;;14.50;8.67;;;12.60;99.90;;;;;;5076077;28;20179;-87
2021/04/30 09:57:28;;;;;;;11.50;8.73;;;12.60;88.20;;;;;;5076360;28;20192;-89
2021/04/30 10:00:06;;;;;;;10.40;8.33;;;12.80;99.90;;;;;;5076392;28;20191;-88
2021/04/30 10:02:34;;;;;;;12.73;8.93;;;12.90;99.90;;;;;;5073929;28;20180;-79
2021/04/30 10:05:18;;;;;;;10.80;8.77;;;13.00;1.00;;;;;;5075158;28;20168;-79
2021/04/30 10:07:44;;;;;;;11.50;8.50;;;12.90;99.90;;;;;;5075261;28;20168;-79
2021/04/30 10:10:14;;;;;;;16.80;9.17;;;13.10;99.90;;;;;;5074594;28;20164;-85
2021/04/30 10:12:44;;;;;;;16.43;8.57;;;13.20;1.00;;;;;;5076673;28;20176;-86
2021/04/30 10:15:19;;;;;;;12.73;9.00;;;13.50;99.90;;;;;;5075953;28;20180;-87
2021/04/30 10:17:45;;;;;;;11.93;9.10;;;13.70;1.00;;;;;;5076319;28;20199;-79
2021/04/30 10:20:12;;;;;;;10.13;9.07;;;13.50;1.00;;;;;;5074335;28;20604;-87
2021/04/30 10:22:41;;;;;;;14.80;9.83;;;13.20;1.00;;;;;;5075231;28;20200;-88
2021/04/30 10:25:14;;;;;;;11.37;9.57;;;13.00;99.90;;;;;;5093081;28;20167;-85
2021/04/30 10:27:43;;;;;;;14.67;9.23;;;12.90;99.90;;;;;;5094195;28;20243;-88
2021/04/30 10:30:34;;;;;;;11.20;8.37;;;12.70;1.00;;;;;;5094541;28;20587;-87
2021/04/30 10:33:11;;;;;;;12.60;8.67;;;12.50;1.00;;;;;;5094244;28;20175;-83
2021/04/30 10:35:55;;;;;;;18.27;10.80;;;11.80;1.00;;;;;;5094732;28;20632;-86
2021/04/30 10:38:23;;;;;;;13.00;9.40;;;11.50;1.00;;;;;;5072350;28;20203;-86
2021/04/30 10:41:05;;;;;;;16.87;9.67;;;11.30;99.90;;;;;;5055300;28;20169;-85
2021/04/30 10:43:33;;;;;;;15.23;9.30;;;11.30;99.90;;;;;;5074839;28;20179;-86
2021/04/30 10:46:14;;;;;;;14.03;8.60;;;11.20;99.90;;;;;;5076822;28;20176;-85
2021/04/30 10:48:58;;;;;;;12.17;9.23;;;11.00;1.00;;;;;;5075443;28;20164;-87
2021/04/30 10:51:24;;;;;;;13.37;9.40;;;11.00;99.90;;;;;;5074126;28;20164;-86
2021/04/30 10:53:49;;;;;;;12.97;9.73;;;11.10;99.90;;;;;;5074232;28;20172;-86
2021/04/30 10:56:32;;;;;;;14.37;9.50;;;11.20;1.00;;;;;;5075092;28;20168;-88
2021/04/30 10:58:58;;;;;;;13.20;9.33;;;11.30;1.00;;;;;;5074675;28;20208;-84
2021/04/30 11:01:30;;;;;;;15.50;9.13;;;11.30;1.00;;;;;;5074189;28;20164;-90
2021/04/30 11:04:10;;;;;;;13.00;9.50;;;11.30;1.00;;;;;;5075142;28;20172;-86
2021/04/30 11:06:53;;;;;;;12.43;9.70;;;11.30;56.70;;;;;;5074430;28;20578;-86
2021/04/30 11:09:27;;;;;;;12.60;9.20;;;11.10;99.90;;;;;;5075532;28;20202;-87
2021/04/30 11:11:53;;;;;;;15.20;9.53;;;11.10;99.90;;;;;;5074338;28;20180;-88
2021/04/30 11:14:19;;;;;;;17.53;9.87;;;11.30;1.00;;;;;;5073673;28;20632;-86
2021/04/30 11:16:48;;;;;;;12.73;9.40;;;11.20;11.40;;;;;;5074208;28;20184;-85
2021/04/30 11:19:15;;;;;;;14.10;9.87;;;11.40;1.00;;;;;;5074381;28;20216;-84
2021/04/30 11:22:08;;;;;;;14.53;10.03;;;11.50;1.00;;;;;;5075144;28;20172;-84
2021/04/30 11:24:45;;;;;;;14.43;10.20;;;11.80;1.00;;;;;;5088450;28;20263;-86
2021/04/30 11:27:20;;;;;;;12.17;9.50;;;11.80;1.00;;;;;;5094282;28;20175;-87
2021/04/30 11:29:46;;;;;;;15.83;9.93;;;11.90;1.00;;;;;;5096071;28;20225;-88
2021/04/30 11:32:27;;;;;;;13.13;9.20;;;11.90;99.90;;;;;;5093717;28;20176;-84
2021/04/30 11:34:54;;;;;;;13.43;8.97;;;12.00;99.90;;;;;;5077481;28;20234;-85
2021/04/30 11:37:22;;;;;;;12.50;9.77;;;12.20;1.00;;;;;;5074819;28;20252;-88
2021/04/30 11:39:48;;;;;;;13.63;10.27;;;12.10;99.90;;;;;;5074527;28;20183;-85
2021/04/30 11:42:14;;;;;;;13.33;9.60;;;12.30;99.90;;;;;;5062092;28;20196;-85
2021/04/30 11:44:43;;;;;;;14.17;9.80;;;12.60;99.90;;;;;;5054199;28;20169;-87
2021/04/30 11:47:14;;;;;;;16.03;9.43;;;12.50;99.90;;;;;;5053588;28;20633;-83
2021/04/30 11:49:41;;;;;;;9.73;8.73;;;12.70;1.00;;;;;;5061736;28;20164;-79
2021/04/30 11:52:11;;;;;;;11.43;9.43;;;12.70;93.40;;;;;;5053303;28;20219;-88
2021/04/30 11:54:39;;;;;;;12.50;9.37;;;12.70;53.80;;;;;;5053518;28;20261;-85
2021/04/30 11:57:12;;;;;;;11.57;8.77;;;12.80;99.90;;;;;;5053865;28;20832;-83
2021/04/30 11:59:40;;;;;;;9.83;8.33;;;12.70;99.90;;;;;;5053850;28;20173;-88
2021/04/30 12:02:08;;;;;;;14.10;9.00;;;12.80;99.90;;;;;;5053790;28;20172;-87
2021/04/30 12:04:35;;;;;;;13.20;9.07;;;13.10;1.00;;;;;;5054259;28;20185;-83
2021/04/30 12:07:01;;;;;;;12.87;9.90;;;13.20;99.90;;;;;;5053931;28;20224;-88
2021/04/30 12:09:29;;;;;;;12.50;8.90;;;13.40;99.90;;;;;;5054105;28;20177;-89
2021/04/30 12:11:55;;;;;;;14.00;9.23;;;13.30;1.00;;;;;;5067763;28;20180;-85
2021/04/30 12:14:21;;;;;;;14.17;10.23;;;12.90;1.00;;;;;;5072625;28;20188;-88
2021/04/30 12:17:00;;;;;;;12.43;10.50;;;12.80;99.90;;;;;;5074000;28;20188;-87
2021/04/30 12:19:26;;;;;;;11.13;9.83;;;12.50;71.50;;;;;;5072974;28;20231;-81
2021/04/30 12:21:52;;;;;;;14.77;10.90;;;12.20;99.90;;;;;;5072188;28;20223;-84
2021/04/30 12:24:21;;;;;;;15.33;11.60;;;12.10;1.00;;;;;;5083627;28;20242;-79
2021/04/30 12:26:48;;;;;;;14.27;11.23;;;11.70;1.00;;;;;;5093639;28;20167;-77
2021/04/30 12:29:14;;;;;;;13.40;11.33;;;11.60;1.00;;;;;;5092764;28;20530;-79
2021/04/30 12:31:40;;;;;;;13.23;11.23;;;11.60;1.00;;;;;;5092629;28;20168;-78
2021/04/30 12:34:06;;;;;;;18.53;12.67;;;11.60;1.00;;;;;;5080463;28;20596;-80
2021/04/30 12:36:33;;;;;;;14.40;11.23;;;11.50;99.90;;;;;;5071681;28;20176;-79
2021/04/30 12:39:02;;;;;;;13.07;11.50;;;11.50;99.90;;;;;;5071038;28;20215;-81
2021/04/30 12:41:31;;;;;;;15.33;10.50;;;11.40;1.00;;;;;;5071292;28;20176;-80
2021/04/30 12:44:07;;;;;;;15.47;11.20;;;11.50;1.00;;;;;;5071352;28;20184;-83
2021/04/30 12:46:36;;;;;;;12.20;10.30;;;11.50;1.00;;;;;;5071381;28;20578;-78
2021/04/30 12:49:06;;;;;;;12.47;11.17;;;11.60;99.90;;;;;;5070112;28;20656;-78
2021/04/30 12:51:35;;;;;;;14.43;10.03;;;11.40;99.90;;;;;;5070856;28;20255;-79